sensor_id;sensor_type;location;lat;lon;timestamp;pressure;altitude;pressure_sealevel;temperature;humidity
54600;BME280;40500;51.084;16.958;2023-04-10T00:02:22;101280.29;;;6.26;100.00
54600;BME280;40500;51.084;16.958;2023-04-10T00:04:53;101280.05;;;6.24;100.00
54600;BME280;40500;51.084;16.958;2023-04-10T00:07:23;101273.89;;;6.19;100.00
54600;BME280;40500;51.084;16.958;2023-04-10T00:09:54;101270.00;;;6.14;100.00
54600;BME280;40500;51.084;16.958;2023-04-10T00:12:25;101269.73;;;6.08;100.00
54600;BME280;40500;51.084;16.958;2023-04-10T00:14:55;101266.04;;;6.06;100.00
54600;BME280;40500;51.084;16.958;2023-04-10T00:17:26;101264.42;;;6.03;100.00
54600;BME280;40500;51.084;16.958;2023-04-10T00:19:56;101261.73;;;5.99;100.00
54600;BME280;40500;51.084;16.958;2023-04-10T00:22:28;101261.84;;;5.95;100.00
54600;BME280;40500;51.084;16.958;2023-04-10T00:24:59;101259.87;;;5.91;100.00
54600;BME280;40500;51.084;16.958;2023-04-10T00:27:29;101257.88;;;5.88;100.00
54600;BME280;40500;51.084;16.958;2023-04-10T00:29:59;101259.25;;;5.86;100.00
54600;BME280;40500;51.084;16.958;2023-04-10T00:32:30;101255.39;;;5.84;100.00
54600;BME280;40500;51.084;16.958;2023-04-10T00:35:01;101257.48;;;5.75;100.00
54600;BME280;40500;51.084;16.958;2023-04-10T00:37:31;101254.71;;;5.66;100.00
54600;BME280;40500;51.084;16.958;2023-04-10T00:40:02;101255.64;;;5.59;100.00
54600;BME280;40500;51.084;16.958;2023-04-10T00:42:32;101253.86;;;5.48;100.00
54600;BME280;40500;51.084;16.958;2023-04-10T00:45:03;101255.22;;;5.37;100.00
54600;BME280;40500;51.084;16.958;2023-04-10T00:47:35;101254.20;;;5.29;100.00
54600;BME280;40500;51.084;16.958;2023-04-10T00:50:07;101253.64;;;5.27;100.00
54600;BME280;40500;51.084;16.958;2023-04-10T00:52:38;101254.09;;;5.23;100.00
54600;BME280;40500;51.084;16.958;2023-04-10T00:55:09;101254.39;;;5.21;100.00
54600;BME280;40500;51.084;16.958;2023-04-10T00:57:41;101264.05;;;5.17;100.00
54600;BME280;40500;51.084;16.958;2023-04-10T01:00:14;101264.75;;;5.17;100.00
54600;BME280;40500;51.084;16.958;2023-04-10T01:02:45;101263.45;;;5.23;100.00
54600;BME280;40500;51.084;16.958;2023-04-10T01:05:16;101262.40;;;5.30;100.00
54600;BME280;40500;51.084;16.958;2023-04-10T01:07:56;101255.02;;;5.35;100.00
54600;BME280;40500;51.084;16.958;2023-04-10T01:10:37;101259.75;;;5.37;100.00
54600;BME280;40500;51.084;16.958;2023-04-10T01:13:25;101256.30;;;5.37;100.00
54600;BME280;40500;51.084;16.958;2023-04-10T01:16:00;101255.06;;;5.37;100.00
54600;BME280;40500;51.084;16.958;2023-04-10T01:18:37;101256.79;;;5.36;100.00
54600;BME280;40500;51.084;16.958;2023-04-10T01:21:11;101255.07;;;5.29;100.00
54600;BME280;40500;51.084;16.958;2023-04-10T01:24:09;101258.63;;;5.15;100.00
54600;BME280;40500;51.084;16.958;2023-04-10T01:26:55;101258.56;;;5.04;100.00
54600;BME280;40500;51.084;16.958;2023-04-10T01:29:32;101258.35;;;5.01;100.00
54600;BME280;40500;51.084;16.958;2023-04-10T01:32:09;101256.38;;;4.99;100.00
54600;BME280;40500;51.084;16.958;2023-04-10T01:34:42;101259.17;;;4.91;100.00
54600;BME280;40500;51.084;16.958;2023-04-10T01:37:20;101256.55;;;4.82;100.00
54600;BME280;40500;51.084;16.958;2023-04-10T01:39:55;101258.66;;;4.75;100.00
54600;BME280;40500;51.084;16.958;2023-04-10T01:42:30;101254.39;;;4.70;100.00
54600;BME280;40500;51.084;16.958;2023-04-10T01:45:02;101252.25;;;4.67;100.00
54600;BME280;40500;51.084;16.958;2023-04-10T01:47:33;101249.96;;;4.66;100.00
54600;BME280;40500;51.084;16.958;2023-04-10T01:50:04;101256.01;;;4.65;100.00
54600;BME280;40500;51.084;16.958;2023-04-10T01:52:37;101256.27;;;4.61;100.00
54600;BME280;40500;51.084;16.958;2023-04-10T01:55:26;101262.09;;;4.57;100.00
54600;BME280;40500;51.084;16.958;2023-04-10T01:58:03;101259.63;;;4.56;100.00
54600;BME280;40500;51.084;16.958;2023-04-10T02:00:39;101260.14;;;4.56;100.00
54600;BME280;40500;51.084;16.958;2023-04-10T02:03:10;101263.28;;;4.56;100.00
54600;BME280;40500;51.084;16.958;2023-04-10T02:06:00;101264.45;;;4.54;100.00
54600;BME280;40500;51.084;16.958;2023-04-10T02:08:35;101260.05;;;4.52;100.00
54600;BME280;40500;51.084;16.958;2023-04-10T02:11:14;101264.86;;;4.50;100.00
54600;BME280;40500;51.084;16.958;2023-04-10T02:13:48;101263.52;;;4.51;100.00
54600;BME280;40500;51.084;16.958;2023-04-10T02:16:22;101264.79;;;4.54;100.00
54600;BME280;40500;51.084;16.958;2023-04-10T02:18:53;101262.02;;;4.54;100.00
54600;BME280;40500;51.084;16.958;2023-04-10T02:21:24;101261.52;;;4.55;100.00
54600;BME280;40500;51.084;16.958;2023-04-10T02:23:58;101260.66;;;4.56;100.00
54600;BME280;40500;51.084;16.958;2023-04-10T02:26:29;101253.89;;;4.55;100.00
54600;BME280;40500;51.084;16.958;2023-04-10T02:28:59;101260.81;;;4.55;100.00
54600;BME280;40500;51.084;16.958;2023-04-10T02:31:30;101264.69;;;4.49;100.00
54600;BME280;40500;51.084;16.958;2023-04-10T02:34:00;101270.27;;;4.43;100.00
54600;BME280;40500;51.084;16.958;2023-04-10T02:36:30;101272.42;;;4.40;100.00
54600;BME280;40500;51.084;16.958;2023-04-10T02:39:02;101269.73;;;4.35;100.00
54600;BME280;40500;51.084;16.958;2023-04-10T02:41:32;101274.85;;;4.31;100.00
54600;BME280;40500;51.084;16.958;2023-04-10T02:44:04;101271.48;;;4.28;100.00
54600;BME280;40500;51.084;16.958;2023-04-10T02:46:35;101271.92;;;4.25;100.00
54600;BME280;40500;51.084;16.958;2023-04-10T02:49:06;101267.85;;;4.21;100.00
54600;BME280;40500;51.084;16.958;2023-04-10T02:51:37;101269.99;;;4.17;100.00
54600;BME280;40500;51.084;16.958;2023-04-10T02:54:07;101272.05;;;4.16;100.00
54600;BME280;40500;51.084;16.958;2023-04-10T02:56:38;101271.73;;;4.17;100.00
54600;BME280;40500;51.084;16.958;2023-04-10T02:59:08;101269.50;;;4.18;100.00
54600;BME280;40500;51.084;16.958;2023-04-10T03:01:39;101264.24;;;4.16;100.00
54600;BME280;40500;51.084;16.958;2023-04-10T03:04:10;101264.89;;;4.14;100.00
54600;BME280;40500;51.084;16.958;2023-04-10T03:06:41;101267.92;;;4.10;100.00
54600;BME280;40500;51.084;16.958;2023-04-10T03:09:12;101267.55;;;4.09;100.00
54600;BME280;40500;51.084;16.958;2023-04-10T03:11:42;101270.23;;;4.05;100.00
54600;BME280;40500;51.084;16.958;2023-04-10T03:14:12;101274.71;;;3.97;100.00
54600;BME280;40500;51.084;16.958;2023-04-10T03:16:44;101269.83;;;3.89;100.00
54600;BME280;40500;51.084;16.958;2023-04-10T03:19:15;101278.30;;;3.81;100.00
54600;BME280;40500;51.084;16.958;2023-04-10T03:21:46;101276.92;;;3.75;100.00
54600;BME280;40500;51.084;16.958;2023-04-10T03:24:17;101272.58;;;3.75;100.00
54600;BME280;40500;51.084;16.958;2023-04-10T03:26:47;101270.39;;;3.71;100.00
54600;BME280;40500;51.084;16.958;2023-04-10T03:29:19;101269.52;;;3.64;100.00
54600;BME280;40500;51.084;16.958;2023-04-10T03:31:50;101267.52;;;3.60;100.00
54600;BME280;40500;51.084;16.958;2023-04-10T03:34:21;101271.55;;;3.62;100.00
54600;BME280;40500;51.084;16.958;2023-04-10T03:36:51;101270.70;;;3.62;100.00
54600;BME280;40500;51.084;16.958;2023-04-10T03:39:22;101268.92;;;3.61;100.00
54600;BME280;40500;51.084;16.958;2023-04-10T03:41:52;101268.02;;;3.60;100.00
54600;BME280;40500;51.084;16.958;2023-04-10T03:44:25;101271.61;;;3.58;100.00
54600;BME280;40500;51.084;16.958;2023-04-10T03:46:55;101267.18;;;3.53;100.00
54600;BME280;40500;51.084;16.958;2023-04-10T03:49:26;101272.50;;;3.52;100.00
54600;BME280;40500;51.084;16.958;2023-04-10T03:52:03;101275.24;;;3.51;100.00
54600;BME280;40500;51.084;16.958;2023-04-10T03:54:34;101275.80;;;3.52;100.00
54600;BME280;40500;51.084;16.958;2023-04-10T03:57:05;101271.52;;;3.54;100.00
54600;BME280;40500;51.084;16.958;2023-04-10T03:59:35;101270.31;;;3.54;100.00
54600;BME280;40500;51.084;16.958;2023-04-10T04:02:10;101276.02;;;3.54;100.00
54600;BME280;40500;51.084;16.958;2023-04-10T04:04:43;101272.75;;;3.55;100.00
54600;BME280;40500;51.084;16.958;2023-04-10T04:07:22;101271.55;;;3.55;100.00
54600;BME280;40500;51.084;16.958;2023-04-10T04:10:13;101272.66;;;3.58;100.00
54600;BME280;40500;51.084;16.958;2023-04-10T04:12:54;101281.28;;;3.56;100.00
54600;BME280;40500;51.084;16.958;2023-04-10T04:15:44;101279.59;;;3.52;100.00
54600;BME280;40500;51.084;16.958;2023-04-10T04:18:19;101281.34;;;3.52;100.00
54600;BME280;40500;51.084;16.958;2023-04-10T04:20:54;101281.08;;;3.55;100.00
54600;BME280;40500;51.084;16.958;2023-04-10T04:23:51;101285.83;;;3.59;100.00
54600;BME280;40500;51.084;16.958;2023-04-10T04:26:42;101287.50;;;3.63;100.00
54600;BME280;40500;51.084;16.958;2023-04-10T04:29:20;101287.42;;;3.66;100.00
54600;BME280;40500;51.084;16.958;2023-04-10T04:32:06;101292.05;;;3.71;100.00
54600;BME280;40500;51.084;16.958;2023-04-10T04:34:55;101289.09;;;3.77;100.00
54600;BME280;40500;51.084;16.958;2023-04-10T04:37:46;101293.56;;;3.82;100.00
54600;BME280;40500;51.084;16.958;2023-04-10T04:40:23;101289.68;;;3.86;100.00
54600;BME280;40500;51.084;16.958;2023-04-10T04:43:02;101290.27;;;3.89;100.00
54600;BME280;40500;51.084;16.958;2023-04-10T04:45:51;101290.31;;;3.91;100.00
54600;BME280;40500;51.084;16.958;2023-04-10T04:48:40;101291.52;;;3.91;100.00
54600;BME280;40500;51.084;16.958;2023-04-10T04:51:22;101293.31;;;3.92;100.00
54600;BME280;40500;51.084;16.958;2023-04-10T04:54:03;101298.91;;;3.94;100.00
54600;BME280;40500;51.084;16.958;2023-04-10T04:56:57;101299.01;;;3.99;100.00
54600;BME280;40500;51.084;16.958;2023-04-10T04:59:47;101299.45;;;4.03;100.00
54600;BME280;40500;51.084;16.958;2023-04-10T05:02:37;101300.41;;;4.06;100.00
54600;BME280;40500;51.084;16.958;2023-04-10T05:05:30;101302.45;;;4.11;100.00
54600;BME280;40500;51.084;16.958;2023-04-10T05:08:13;101305.63;;;4.14;100.00
54600;BME280;40500;51.084;16.958;2023-04-10T05:11:19;101306.58;;;4.17;100.00
54600;BME280;40500;51.084;16.958;2023-04-10T05:14:11;101311.38;;;4.22;100.00
54600;BME280;40500;51.084;16.958;2023-04-10T05:17:00;101312.91;;;4.28;100.00
54600;BME280;40500;51.084;16.958;2023-04-10T05:19:47;101317.90;;;4.33;100.00
54600;BME280;40500;51.084;16.958;2023-04-10T05:22:36;101319.63;;;4.41;100.00
54600;BME280;40500;51.084;16.958;2023-04-10T05:25:18;101324.45;;;4.47;100.00
54600;BME280;40500;51.084;16.958;2023-04-10T05:28:04;101333.08;;;4.51;100.00
54600;BME280;40500;51.084;16.958;2023-04-10T05:30:52;101338.23;;;4.56;100.00
54600;BME280;40500;51.084;16.958;2023-04-10T05:33:46;101345.65;;;4.63;100.00
54600;BME280;40500;51.084;16.958;2023-04-10T05:36:36;101345.63;;;4.69;100.00
54600;BME280;40500;51.084;16.958;2023-04-10T05:39:25;101352.56;;;4.77;100.00
54600;BME280;40500;51.084;16.958;2023-04-10T05:42:14;101357.34;;;4.81;100.00
54600;BME280;40500;51.084;16.958;2023-04-10T05:44:50;101362.84;;;4.86;100.00
54600;BME280;40500;51.084;16.958;2023-04-10T05:47:37;101361.09;;;4.93;100.00
54600;BME280;40500;51.084;16.958;2023-04-10T05:50:30;101368.53;;;5.00;100.00
54600;BME280;40500;51.084;16.958;2023-04-10T05:53:19;101364.54;;;5.07;100.00
54600;BME280;40500;51.084;16.958;2023-04-10T05:56:08;101370.57;;;5.13;100.00
54600;BME280;40500;51.084;16.958;2023-04-10T05:58:59;101366.87;;;5.19;100.00
54600;BME280;40500;51.084;16.958;2023-04-10T06:01:48;101363.35;;;5.25;100.00
54600;BME280;40500;51.084;16.958;2023-04-10T06:04:19;101364.59;;;5.35;100.00
54600;BME280;40500;51.084;16.958;2023-04-10T06:06:52;101352.97;;;5.43;100.00
54600;BME280;40500;51.084;16.958;2023-04-10T06:09:23;101349.67;;;5.52;100.00
54600;BME280;40500;51.084;16.958;2023-04-10T06:11:53;101349.81;;;5.59;100.00
54600;BME280;40500;51.084;16.958;2023-04-10T06:14:25;101348.02;;;5.65;100.00
54600;BME280;40500;51.084;16.958;2023-04-10T06:16:57;101351.99;;;5.74;100.00
54600;BME280;40500;51.084;16.958;2023-04-10T06:19:27;101353.30;;;5.78;100.00
54600;BME280;40500;51.084;16.958;2023-04-10T06:21:58;101349.59;;;5.84;100.00
54600;BME280;40500;51.084;16.958;2023-04-10T06:24:30;101342.94;;;5.91;100.00
54600;BME280;40500;51.084;16.958;2023-04-10T06:27:02;101341.53;;;5.98;100.00
54600;BME280;40500;51.084;16.958;2023-04-10T06:29:32;101338.69;;;6.05;100.00
54600;BME280;40500;51.084;16.958;2023-04-10T06:32:03;101335.70;;;6.12;100.00
54600;BME280;40500;51.084;16.958;2023-04-10T06:34:36;101336.05;;;6.23;100.00
54600;BME280;40500;51.084;16.958;2023-04-10T06:37:08;101332.77;;;6.34;100.00
54600;BME280;40500;51.084;16.958;2023-04-10T06:39:39;101329.41;;;6.42;100.00
54600;BME280;40500;51.084;16.958;2023-04-10T06:42:09;101331.65;;;6.51;100.00
54600;BME280;40500;51.084;16.958;2023-04-10T06:45:00;101331.14;;;6.64;100.00
54600;BME280;40500;51.084;16.958;2023-04-10T06:47:31;101328.31;;;6.72;100.00
54600;BME280;40500;51.084;16.958;2023-04-10T06:50:02;101335.69;;;6.77;100.00
54600;BME280;40500;51.084;16.958;2023-04-10T06:52:33;101337.63;;;6.80;100.00
54600;BME280;40500;51.084;16.958;2023-04-10T06:55:04;101346.64;;;6.88;100.00
54600;BME280;40500;51.084;16.958;2023-04-10T06:57:34;101351.89;;;7.02;100.00
54600;BME280;40500;51.084;16.958;2023-04-10T07:00:07;101354.63;;;7.12;100.00
54600;BME280;40500;51.084;16.958;2023-04-10T07:02:37;101354.23;;;7.20;100.00
54600;BME280;40500;51.084;16.958;2023-04-10T07:05:08;101355.38;;;7.29;100.00
54600;BME280;40500;51.084;16.958;2023-04-10T07:07:39;101358.41;;;7.35;100.00
54600;BME280;40500;51.084;16.958;2023-04-10T07:10:10;101364.89;;;7.37;100.00
54600;BME280;40500;51.084;16.958;2023-04-10T07:12:41;101365.46;;;7.41;100.00
54600;BME280;40500;51.084;16.958;2023-04-10T07:15:12;101365.88;;;7.46;100.00
54600;BME280;40500;51.084;16.958;2023-04-10T07:17:42;101368.25;;;7.54;100.00
54600;BME280;40500;51.084;16.958;2023-04-10T07:20:13;101363.42;;;7.59;100.00
54600;BME280;40500;51.084;16.958;2023-04-10T07:22:43;101367.48;;;7.63;100.00
54600;BME280;40500;51.084;16.958;2023-04-10T07:25:13;101364.92;;;7.69;100.00
54600;BME280;40500;51.084;16.958;2023-04-10T07:27:44;101364.17;;;7.79;100.00
54600;BME280;40500;51.084;16.958;2023-04-10T07:30:15;101358.54;;;7.90;100.00
54600;BME280;40500;51.084;16.958;2023-04-10T07:32:45;101356.05;;;8.03;100.00
54600;BME280;40500;51.084;16.958;2023-04-10T07:35:16;101360.69;;;8.14;100.00
54600;BME280;40500;51.084;16.958;2023-04-10T07:37:46;101364.10;;;8.24;100.00
54600;BME280;40500;51.084;16.958;2023-04-10T07:40:19;101360.33;;;8.32;100.00
54600;BME280;40500;51.084;16.958;2023-04-10T07:42:50;101361.13;;;8.41;100.00
54600;BME280;40500;51.084;16.958;2023-04-10T07:45:22;101355.79;;;8.48;100.00
54600;BME280;40500;51.084;16.958;2023-04-10T07:47:52;101361.93;;;8.53;100.00
54600;BME280;40500;51.084;16.958;2023-04-10T07:50:22;101361.11;;;8.60;100.00
54600;BME280;40500;51.084;16.958;2023-04-10T07:52:53;101357.17;;;8.70;100.00
54600;BME280;40500;51.084;16.958;2023-04-10T07:55:23;101356.39;;;8.84;100.00
54600;BME280;40500;51.084;16.958;2023-04-10T07:57:54;101358.04;;;8.97;100.00
54600;BME280;40500;51.084;16.958;2023-04-10T08:00:25;101359.84;;;9.05;100.00
54600;BME280;40500;51.084;16.958;2023-04-10T08:02:55;101363.38;;;9.13;100.00
54600;BME280;40500;51.084;16.958;2023-04-10T08:05:26;101365.34;;;9.20;100.00
54600;BME280;40500;51.084;16.958;2023-04-10T08:07:57;101364.31;;;9.24;100.00
54600;BME280;40500;51.084;16.958;2023-04-10T08:10:28;101365.02;;;9.26;100.00
54600;BME280;40500;51.084;16.958;2023-04-10T08:12:58;101365.36;;;9.26;100.00
54600;BME280;40500;51.084;16.958;2023-04-10T08:15:28;101363.09;;;9.26;100.00
54600;BME280;40500;51.084;16.958;2023-04-10T08:17:59;101359.95;;;9.24;100.00
54600;BME280;40500;51.084;16.958;2023-04-10T08:20:29;101353.65;;;9.22;100.00
54600;BME280;40500;51.084;16.958;2023-04-10T08:23:05;101353.48;;;9.27;100.00
54600;BME280;40500;51.084;16.958;2023-04-10T08:25:49;101349.52;;;9.38;100.00
54600;BME280;40500;51.084;16.958;2023-04-10T08:28:19;101343.09;;;9.47;100.00
54600;BME280;40500;51.084;16.958;2023-04-10T08:30:50;101341.90;;;9.60;100.00
54600;BME280;40500;51.084;16.958;2023-04-10T08:33:22;101339.32;;;9.72;100.00
54600;BME280;40500;51.084;16.958;2023-04-10T08:35:52;101345.29;;;9.78;100.00
54600;BME280;40500;51.084;16.958;2023-04-10T08:38:23;101344.06;;;9.81;100.00
54600;BME280;40500;51.084;16.958;2023-04-10T08:40:58;101344.23;;;9.78;100.00
54600;BME280;40500;51.084;16.958;2023-04-10T08:43:30;101343.38;;;9.82;100.00
54600;BME280;40500;51.084;16.958;2023-04-10T08:46:01;101343.40;;;9.99;100.00
54600;BME280;40500;51.084;16.958;2023-04-10T08:48:37;101339.92;;;10.15;100.00
54600;BME280;40500;51.084;16.958;2023-04-10T08:51:10;101341.52;;;10.32;100.00
54600;BME280;40500;51.084;16.958;2023-04-10T08:53:51;101337.33;;;10.44;100.00
54600;BME280;40500;51.084;16.958;2023-04-10T08:56:24;101336.98;;;10.56;100.00
54600;BME280;40500;51.084;16.958;2023-04-10T08:58:56;101332.42;;;10.64;100.00
54600;BME280;40500;51.084;16.958;2023-04-10T09:01:26;101328.20;;;10.72;100.00
54600;BME280;40500;51.084;16.958;2023-04-10T09:03:57;101327.65;;;10.81;100.00
54600;BME280;40500;51.084;16.958;2023-04-10T09:06:29;101323.44;;;10.88;100.00
54600;BME280;40500;51.084;16.958;2023-04-10T09:09:00;101318.50;;;11.00;100.00
54600;BME280;40500;51.084;16.958;2023-04-10T09:11:57;101324.42;;;11.09;100.00
54600;BME280;40500;51.084;16.958;2023-04-10T09:14:33;101319.67;;;11.16;100.00
54600;BME280;40500;51.084;16.958;2023-04-10T09:17:20;101320.17;;;11.23;100.00
54600;BME280;40500;51.084;16.958;2023-04-10T09:19:52;101322.06;;;11.34;100.00
54600;BME280;40500;51.084;16.958;2023-04-10T09:22:31;101320.33;;;11.30;100.00
54600;BME280;40500;51.084;16.958;2023-04-10T09:25:03;101315.61;;;11.24;100.00
54600;BME280;40500;51.084;16.958;2023-04-10T09:27:35;101317.52;;;11.28;100.00
54600;BME280;40500;51.084;16.958;2023-04-10T09:30:09;101311.76;;;11.24;100.00
54600;BME280;40500;51.084;16.958;2023-04-10T09:32:41;101304.35;;;11.32;100.00
54600;BME280;40500;51.084;16.958;2023-04-10T09:35:13;101302.32;;;11.56;100.00
54600;BME280;40500;51.084;16.958;2023-04-10T09:37:44;101296.95;;;11.72;100.00
54600;BME280;40500;51.084;16.958;2023-04-10T09:40:23;101291.61;;;11.84;100.00
54600;BME280;40500;51.084;16.958;2023-04-10T09:42:55;101288.58;;;11.95;100.00
54600;BME280;40500;51.084;16.958;2023-04-10T09:45:25;101279.92;;;12.03;100.00
54600;BME280;40500;51.084;16.958;2023-04-10T09:48:06;101277.38;;;12.14;100.00
54600;BME280;40500;51.084;16.958;2023-04-10T09:50:38;101267.66;;;12.20;100.00
54600;BME280;40500;51.084;16.958;2023-04-10T09:53:10;101264.85;;;12.21;100.00
54600;BME280;40500;51.084;16.958;2023-04-10T09:55:42;101262.86;;;12.25;100.00
54600;BME280;40500;51.084;16.958;2023-04-10T09:58:13;101259.27;;;12.36;100.00
54600;BME280;40500;51.084;16.958;2023-04-10T10:00:45;101251.45;;;12.46;100.00
54600;BME280;40500;51.084;16.958;2023-04-10T10:03:17;101245.44;;;12.49;100.00
54600;BME280;40500;51.084;16.958;2023-04-10T10:05:50;101244.17;;;12.53;100.00
54600;BME280;40500;51.084;16.958;2023-04-10T10:08:21;101240.55;;;12.62;100.00
54600;BME280;40500;51.084;16.958;2023-04-10T10:10:54;101235.17;;;12.72;100.00
54600;BME280;40500;51.084;16.958;2023-04-10T10:13:30;101238.31;;;12.73;100.00
54600;BME280;40500;51.084;16.958;2023-04-10T10:16:11;101235.61;;;12.80;100.00
54600;BME280;40500;51.084;16.958;2023-04-10T10:18:46;101233.31;;;12.81;100.00
54600;BME280;40500;51.084;16.958;2023-04-10T10:21:22;101233.89;;;12.76;100.00
54600;BME280;40500;51.084;16.958;2023-04-10T10:23:55;101226.79;;;12.67;100.00
54600;BME280;40500;51.084;16.958;2023-04-10T10:26:26;101229.28;;;12.64;100.00
54600;BME280;40500;51.084;16.958;2023-04-10T10:28:58;101226.09;;;12.67;100.00
54600;BME280;40500;51.084;16.958;2023-04-10T10:31:32;101223.21;;;12.73;100.00
54600;BME280;40500;51.084;16.958;2023-04-10T10:34:05;101214.88;;;12.79;100.00
54600;BME280;40500;51.084;16.958;2023-04-10T10:36:38;101214.38;;;12.92;100.00
54600;BME280;40500;51.084;16.958;2023-04-10T10:39:23;101206.11;;;13.05;100.00
54600;BME280;40500;51.084;16.958;2023-04-10T10:42:01;101202.91;;;13.20;100.00
54600;BME280;40500;51.084;16.958;2023-04-10T10:44:40;101202.27;;;13.31;100.00
54600;BME280;40500;51.084;16.958;2023-04-10T10:47:15;101199.19;;;13.37;100.00
54600;BME280;40500;51.084;16.958;2023-04-10T10:49:54;101197.15;;;13.43;100.00
54600;BME280;40500;51.084;16.958;2023-04-10T10:52:39;101193.29;;;13.43;100.00
54600;BME280;40500;51.084;16.958;2023-04-10T10:55:31;101189.01;;;13.48;100.00
54600;BME280;40500;51.084;16.958;2023-04-10T10:58:06;101181.84;;;13.67;100.00
54600;BME280;40500;51.084;16.958;2023-04-10T11:01:08;101179.51;;;13.80;100.00
54600;BME280;40500;51.084;16.958;2023-04-10T11:03:39;101175.04;;;13.85;100.00
54600;BME280;40500;51.084;16.958;2023-04-10T11:06:11;101174.98;;;13.87;100.00
54600;BME280;40500;51.084;16.958;2023-04-10T11:08:46;101174.34;;;13.83;100.00
54600;BME280;40500;51.084;16.958;2023-04-10T11:11:18;101168.94;;;13.81;100.00
54600;BME280;40500;51.084;16.958;2023-04-10T11:14:13;101168.98;;;13.77;100.00
54600;BME280;40500;51.084;16.958;2023-04-10T11:16:48;101167.44;;;13.65;100.00
54600;BME280;40500;51.084;16.958;2023-04-10T11:19:19;101166.48;;;13.59;100.00
54600;BME280;40500;51.084;16.958;2023-04-10T11:22:02;101160.75;;;13.65;100.00
54600;BME280;40500;51.084;16.958;2023-04-10T11:24:52;101158.33;;;13.73;100.00
54600;BME280;40500;51.084;16.958;2023-04-10T11:27:41;101154.17;;;13.79;100.00
54600;BME280;40500;51.084;16.958;2023-04-10T11:30:32;101150.00;;;13.97;100.00
54600;BME280;40500;51.084;16.958;2023-04-10T11:33:04;101144.45;;;14.11;100.00
54600;BME280;40500;51.084;16.958;2023-04-10T11:35:34;101147.27;;;14.21;100.00
54600;BME280;40500;51.084;16.958;2023-04-10T11:38:13;101138.98;;;14.30;100.00
54600;BME280;40500;51.084;16.958;2023-04-10T11:41:01;101133.19;;;14.30;100.00
54600;BME280;40500;51.084;16.958;2023-04-10T11:43:33;101133.14;;;14.22;100.00
54600;BME280;40500;51.084;16.958;2023-04-10T11:46:06;101135.31;;;14.19;100.00
54600;BME280;40500;51.084;16.958;2023-04-10T11:48:37;101133.50;;;14.22;100.00
54600;BME280;40500;51.084;16.958;2023-04-10T11:51:12;101133.79;;;14.25;100.00
54600;BME280;40500;51.084;16.958;2023-04-10T11:53:42;101134.34;;;14.24;100.00
54600;BME280;40500;51.084;16.958;2023-04-10T11:56:20;101127.90;;;14.29;100.00
54600;BME280;40500;51.084;16.958;2023-04-10T11:58:51;101127.13;;;14.33;100.00
54600;BME280;40500;51.084;16.958;2023-04-10T12:01:23;101122.78;;;14.39;100.00
54600;BME280;40500;51.084;16.958;2023-04-10T12:03:54;101120.17;;;14.46;100.00
54600;BME280;40500;51.084;16.958;2023-04-10T12:06:24;101119.95;;;14.48;100.00
54600;BME280;40500;51.084;16.958;2023-04-10T12:08:55;101117.11;;;14.49;100.00
54600;BME280;40500;51.084;16.958;2023-04-10T12:11:26;101114.04;;;14.44;100.00
54600;BME280;40500;51.084;16.958;2023-04-10T12:13:58;101117.67;;;14.39;100.00
54600;BME280;40500;51.084;16.958;2023-04-10T12:16:28;101117.52;;;14.29;100.00
54600;BME280;40500;51.084;16.958;2023-04-10T12:18:59;101112.52;;;14.33;100.00
54600;BME280;40500;51.084;16.958;2023-04-10T12:21:29;101111.49;;;14.48;100.00
54600;BME280;40500;51.084;16.958;2023-04-10T12:24:00;101107.98;;;14.66;100.00
54600;BME280;40500;51.084;16.958;2023-04-10T12:26:30;101106.39;;;14.75;100.00
54600;BME280;40500;51.084;16.958;2023-04-10T12:29:01;101102.72;;;14.81;100.00
54600;BME280;40500;51.084;16.958;2023-04-10T12:31:33;101099.10;;;14.85;100.00
54600;BME280;40500;51.084;16.958;2023-04-10T12:34:04;101100.44;;;14.96;100.00
54600;BME280;40500;51.084;16.958;2023-04-10T12:36:38;101100.11;;;15.17;100.00
54600;BME280;40500;51.084;16.958;2023-04-10T12:39:22;101096.55;;;15.33;100.00
54600;BME280;40500;51.084;16.958;2023-04-10T12:41:53;101091.45;;;15.47;100.00
54600;BME280;40500;51.084;16.958;2023-04-10T12:44:52;101092.87;;;15.61;100.00
54600;BME280;40500;51.084;16.958;2023-04-10T12:47:23;101094.52;;;15.58;100.00
54600;BME280;40500;51.084;16.958;2023-04-10T12:50:08;101083.91;;;15.59;100.00
54600;BME280;40500;51.084;16.958;2023-04-10T12:52:41;101084.42;;;15.87;100.00
54600;BME280;40500;51.084;16.958;2023-04-10T12:55:14;101079.40;;;16.69;100.00
54600;BME280;40500;51.084;16.958;2023-04-10T12:57:45;101061.34;;;20.08;100.00
54600;BME280;40500;51.084;16.958;2023-04-10T13:00:18;101052.80;;;23.16;100.00
54600;BME280;40500;51.084;16.958;2023-04-10T13:02:49;101040.98;;;25.45;100.00
54600;BME280;40500;51.084;16.958;2023-04-10T13:05:20;101038.08;;;27.44;100.00
54600;BME280;40500;51.084;16.958;2023-04-10T13:07:50;101030.96;;;28.94;100.00
54600;BME280;40500;51.084;16.958;2023-04-10T13:10:21;101020.17;;;30.29;100.00
54600;BME280;40500;51.084;16.958;2023-04-10T13:12:52;101012.89;;;31.86;100.00
54600;BME280;40500;51.084;16.958;2023-04-10T13:15:23;101006.48;;;32.76;100.00
54600;BME280;40500;51.084;16.958;2023-04-10T13:17:53;101001.77;;;33.33;100.00